Sebastian, FL (32958)

12:14 AM EDT on September 17, 2014 (GMT -0400)
KFLSEBAS6 - DW4010 Spirals Wx | Change Station
CLOSE
Current Station
Personal Weather Station
Location: Sebastian, Fl
Elevation: 46 ft
Nearby Weather Stations

Elev 46 ft 27.80 °N, 80.47 °W | Updated 7 minutes ago

Partly Cloudy
Partly Cloudy
72.2 °F
Feels Like 72.2 °F
N
0.0
Wind Variable Wind from West
Gusts 0.0 mph

Today
High -- | Low -- °F
--% Chance of Precip.
Yesterday
High -- | Low -- °F
Precip. -- in
7:08 AM 7:24 PM
Last Quarter, 39% visible
Pressure 30.01 in
Visibility 10.0 miles
Clouds Clear
Dew Point 71 °F
Humidity 97%
Rainfall -9999.00 in
Snow Depth Not available.
UV 0 out of 12
Pollen 7.30 out of 12
Air Quality Not available.
Flu Activity Not available.
METAR KVRB 170253Z 26006KT 10SM CLR 22/19 A3002 RMK AO2 SLP163 60014 T02220194 50002 $

More Conditions Fewer Conditions

Pressure 30.01 in
Visibility 10.0 miles
Clouds Clear
Dew Point 71 °F
Humidity 97%
Rainfall -9999.00 in
Snow Depth Not available.
UV 0 out of 12
Pollen 7.30 out of 12
Air Quality Not available.
Flu Activity Not available.
METAR KVRB 170253Z 26006KT 10SM CLR 22/19 A3002 RMK AO2 SLP163 60014 T02220194 50002 $

More Conditions Fewer Conditions

Nowcast | as of 10:12 PM EDT on September 16, 2014

Light rain from Sebastian Inlet and Vero Beach south dissipates through midnight. Mid and high cloudiness lingers on for most of the night. Easterly winds bring low clouds onshore around sunrise Tuesday morning. Lows in the low and mid 70s. Additional details...including graphics are available online at: http://www.Srh.NOAA.Gov/mlb/blog.Php

×

10-Day Weather Forecast

Almanac

Astronomy

Sep. 17, 2014 Rise Set
Actual Time 7:08 AM EDT 7:24 PM EDT
Civil Twilight 6:44 AM EDT 7:47 PM EDT
Nautical Twilight 6:17 AM EDT 8:14 PM EDT
Astronomical Twilight 5:49 AM EDT 8:42 PM EDT
Moon 1:28 AM EDT 3:12 PM EDT
Length of Visible Light 13h 03m
Length of Day
12h 16m
Tomorrow will be 1m 38s shorter.
Last Quarter, 39% of the Moon is Illuminated
Today
Last Quarter
Sep 24
New
Oct 1
First Quarter
Oct 8
Full
Oct 15
Last Quarter

Yesterday's Extremes

State Highs State Lows

Community

WunderPhotos

Upload Photos

1,753,965 photos uploaded!

Nearby

Snow Depth

Station Depth Elevation
No new snow has been reported.

Earthquake Activity

City Distance Mag. Time & Date
No recent earthquake activity has been reported nearby.
Minimum magnitude displayed is 2.5.

Coastal Water Temperatures

Place Temperature
Lake Worth, FL 86.0 °F
Trident Pier, FL 86.0 °F
Virginia Key, FL 86.0 °F

Nearby Weather Stations